Alba, Missouri
Current Conditions -  °F | °C
As of 3:53 PM on Friday 28 Nov 2014 (Local Time) from KJLN Reporting Station
Clear Clear  
Wind Chill: 62°   Ceiling: Unl
Heat Index: 62°   Visibility: 10mi
Dew Point: 35°   Wind: 20mph
Humidity: 37%   Direction: 180°S
Pressure: 29.88"   Gusts: 28mph
Location:  37.24°N, 94.42°W
Report Text: KJLN 282153Z 18017G24KT 10SM CLR 17/02 A2988 RMK AO2 SLP117 T01670017
Loading
Personal Weather Stations






























Interactive Weather Map New forecast layout! Learn more

10-Day Weather Forecast

Advertisements
Track Severe Weather on mobile